Airfield :
LOGIN :

Register | Disclaimer

   EN    FR    IT 

 










Legend :    VFR   Marginal VFR   IFR   Intensive IFR   Very Intensive IFR
Visi :
Ceiling :
>= 8 km
>= 3000ft
5 to 8 km
1000 to 3000 ft
1500m to 5 km
500 to 1000 ft
800 to 1500m
200 to 500 ft
< 800m
< 200 ft
Symbols :   Thunderstorms  Fog  Heavy snow  Heavy precipitations  Wind > 20 kt
SIGMETs :     Misc.  Thunderstorms  Icing  Turbulence  Mountain Waves  Volcanic Ashes







- Airport Elevation : 1470 ft
- IATA code : KLU


LOWK - Klagenfurt

CURRENT METAR :
  • 300020Z AUTO 33003KT 9999 NCD 07/02 Q1026

EXPIRED METARs :
  • 292350Z AUTO 28003KT 230V310 9999 NCD 07/03 Q1026
  • 292320Z AUTO 30005KT 9999 NCD 08/03 Q1026
  • 292250Z AUTO 29005KT 9999 NCD 08/03 Q1026
  • 292220Z AUTO 31003KT 280V340 9999 NCD 08/03 Q1025
  • 292150Z AUTO VRB01KT 9999 NCD 09/03 Q1026
  • 292120Z AUTO 29004KT 9999 NCD 10/03 Q1025 NOSIG

TAF TAF LOWK
Valid from the 30 at 00:00 until the 31 at 00:00 UTC


292315Z 3000/3024 VRB02KT CAVOK TX19/3015Z TN05/3004Z
TEMPO 3009/3018 10006KT 9999 FEW060
No reported NOTAMs for that airfield.



MET'MAP, your aeronautical weather chart ! - Copyright ORBIFLY December 2007 - Disclaimer

ORBIFLY MET'MAP TEAM :

Programming & Development : Alexandra Zaïnal
Concept & Development : Baudouin d'Aumeries
Co-Development & Prog : Marc-Olivier Méhu
Technical & hardware support : Manuel Goepfert

Contact : metmap@orbifly.com




SOURCES & CREDITS :

   NOAA